Time;durP1;ratioP1;P1;durP2;ratioP2;P2;SDS_P1;SDS_P2;PMS_P1;PMS_P2;Temp;Humidity;BMP_temperature;BMP_pressure;BME280_temperature;BME280_humidity;BME280_pressure;Samples;Min_cycle;Max_cycle;Signal;HPM_P1;HPM_P2
2024/04/06 00:01:15;;;;;;;4.35;2.38;;;16.90;99.90;;;;;;5003358;28;20217;-73
2024/04/06 00:03:40;;;;;;;2.80;1.80;;;17.00;99.90;;;;;;4992862;28;20248;-73
2024/04/06 00:06:07;;;;;;;4.05;2.28;;;16.90;99.90;;;;;;5001811;28;20242;-74
2024/04/06 00:08:33;;;;;;;2.92;2.25;;;16.90;99.90;;;;;;5011974;28;20174;-74
2024/04/06 00:10:58;;;;;;;3.28;2.30;;;16.90;99.90;;;;;;5004199;28;20337;-72
2024/04/06 00:13:24;;;;;;;3.90;1.95;;;16.80;99.90;;;;;;5008376;28;20193;-73
2024/04/06 00:15:50;;;;;;;3.85;2.00;;;16.80;99.90;;;;;;4993605;28;20186;-73
2024/04/06 00:18:16;;;;;;;3.35;1.70;;;16.80;99.90;;;;;;4995925;28;20209;-73
2024/04/06 00:20:41;;;;;;;4.68;2.10;;;16.80;99.90;;;;;;4974962;28;20625;-73
2024/04/06 00:23:07;;;;;;;3.55;1.90;;;16.70;99.90;;;;;;5009373;28;20268;-74
2024/04/06 00:25:32;;;;;;;4.40;1.88;;;16.70;99.90;;;;;;5018745;28;20718;-72
2024/04/06 00:27:58;;;;;;;3.05;2.50;;;16.70;99.90;;;;;;4998718;28;20637;-73
2024/04/06 00:30:24;;;;;;;4.13;1.55;;;16.70;99.90;;;;;;4996068;28;20188;-73
2024/04/06 00:32:49;;;;;;;3.05;1.77;;;16.70;99.90;;;;;;4997270;28;20201;-75
2024/04/06 00:35:18;;;;;;;3.13;2.05;;;16.70;99.90;;;;;;4995327;28;20649;-73
2024/04/06 00:37:44;;;;;;;2.80;1.83;;;16.70;99.90;;;;;;4995542;28;20182;-75
2024/04/06 00:40:10;;;;;;;5.40;2.28;;;16.70;99.90;;;;;;5013917;28;20632;-72
2024/04/06 00:42:36;;;;;;;4.93;2.22;;;16.60;99.90;;;;;;5015255;28;20197;-73
2024/04/06 00:45:02;;;;;;;4.38;2.17;;;16.60;99.90;;;;;;5004060;28;20672;-73
2024/04/06 00:47:28;;;;;;;4.43;2.45;;;16.60;99.90;;;;;;4994719;28;20189;-71
2024/04/06 00:49:54;;;;;;;2.53;2.22;;;16.60;99.90;;;;;;4993971;28;20190;-73
2024/04/06 00:52:19;;;;;;;3.88;2.30;;;16.60;99.90;;;;;;4993386;28;20258;-73
2024/04/06 00:54:45;;;;;;;4.90;2.63;;;16.60;99.90;;;;;;4995131;28;20268;-73
2024/04/06 00:57:12;;;;;;;3.95;2.40;;;16.60;99.90;;;;;;5006892;28;20644;-73
2024/04/06 00:59:38;;;;;;;3.17;2.42;;;16.60;99.90;;;;;;5018867;28;20217;-71
2024/04/06 01:02:05;;;;;;;4.57;2.60;;;16.50;99.90;;;;;;5015323;28;20252;-72
2024/04/06 01:04:30;;;;;;;4.90;2.22;;;16.60;99.90;;;;;;5003276;28;20190;-72
2024/04/06 01:06:56;;;;;;;5.97;2.40;;;16.60;99.90;;;;;;5005238;28;20192;-73
2024/04/06 01:09:23;;;;;;;3.20;2.28;;;16.60;99.90;;;;;;5007066;28;20188;-71
2024/04/06 01:11:49;;;;;;;6.38;2.22;;;16.60;99.90;;;;;;5013408;28;20201;-71
2024/04/06 01:14:15;;;;;;;3.75;2.53;;;16.60;99.90;;;;;;5012301;28;20200;-72
2024/04/06 01:16:40;;;;;;;3.42;2.15;;;16.60;99.90;;;;;;4996431;28;20182;-73
2024/04/06 01:19:06;;;;;;;5.28;2.08;;;16.60;99.90;;;;;;4996077;28;20190;-73
2024/04/06 01:21:31;;;;;;;2.75;1.38;;;16.60;99.90;;;;;;5005473;28;20654;-71
2024/04/06 01:23:57;;;;;;;5.07;2.38;;;16.60;99.90;;;;;;4997692;28;20190;-72
2024/04/06 01:26:23;;;;;;;4.95;2.75;;;16.60;99.90;;;;;;5001881;28;20299;-72
2024/04/06 01:28:49;;;;;;;3.65;2.60;;;16.60;99.90;;;;;;4994703;28;20269;-74
2024/04/06 01:31:15;;;;;;;4.70;2.40;;;16.60;99.90;;;;;;5013647;28;20205;-73
2024/04/06 01:33:41;;;;;;;5.63;3.25;;;16.60;99.90;;;;;;4997503;28;20304;-72
2024/04/06 01:36:07;;;;;;;5.80;2.63;;;16.60;99.90;;;;;;5011137;28;20372;-73
2024/04/06 01:38:33;;;;;;;4.45;2.63;;;16.60;99.90;;;;;;5020181;28;20235;-72
2024/04/06 01:40:59;;;;;;;4.10;2.10;;;16.60;99.90;;;;;;5009717;28;20597;-74
2024/04/06 01:43:25;;;;;;;4.07;2.47;;;16.60;99.90;;;;;;4979986;28;20188;-72
2024/04/06 01:45:51;;;;;;;3.67;2.10;;;16.50;99.90;;;;;;5006181;28;20209;-72
2024/04/06 01:48:16;;;;;;;4.43;2.95;;;16.50;99.90;;;;;;5016187;28;20200;-73
2024/04/06 01:50:43;;;;;;;3.75;2.25;;;16.50;99.90;;;;;;5016524;28;20208;-73
2024/04/06 01:53:08;;;;;;;3.65;2.15;;;16.50;99.90;;;;;;5016322;28;20185;-73
2024/04/06 01:55:34;;;;;;;2.53;2.33;;;16.50;99.90;;;;;;4985302;28;20186;-73
2024/04/06 01:57:59;;;;;;;3.70;2.20;;;16.50;99.90;;;;;;4994401;28;20210;-74
2024/04/06 02:00:25;;;;;;;4.32;2.00;;;16.50;99.90;;;;;;4993028;28;20683;-72
2024/04/06 02:02:50;;;;;;;4.68;2.45;;;16.50;99.90;;;;;;4994092;28;20645;-71
2024/04/06 02:05:16;;;;;;;3.38;2.00;;;16.50;99.90;;;;;;5005475;28;20205;-73
2024/04/06 02:07:41;;;;;;;4.18;2.15;;;16.50;99.90;;;;;;5014068;28;20182;-73
2024/04/06 02:10:07;;;;;;;4.30;1.98;;;16.50;99.90;;;;;;5006140;28;20186;-73
2024/04/06 02:12:33;;;;;;;6.40;2.20;;;16.50;99.90;;;;;;5001115;28;20199;-73
2024/04/06 02:14:58;;;;;;;3.55;1.83;;;16.50;99.90;;;;;;4994048;28;20189;-73
2024/04/06 02:17:24;;;;;;;3.45;2.05;;;16.50;99.90;;;;;;5000376;28;20235;-73
2024/04/06 02:19:50;;;;;;;10.10;2.10;;;16.40;99.90;;;;;;4993080;28;20189;-73
2024/04/06 02:22:16;;;;;;;3.17;1.75;;;16.40;99.90;;;;;;5011945;28;20869;-74
2024/04/06 02:24:41;;;;;;;2.65;2.10;;;16.40;99.90;;;;;;5012864;28;20216;-73
2024/04/06 02:27:07;;;;;;;4.10;2.20;;;16.40;99.90;;;;;;5001830;28;20184;-73
2024/04/06 02:29:33;;;;;;;5.43;2.40;;;16.40;99.90;;;;;;4992648;28;20193;-73
2024/04/06 02:31:59;;;;;;;1.90;1.50;;;16.40;99.90;;;;;;5008959;28;20592;-73
2024/04/06 02:34:25;;;;;;;3.20;1.63;;;16.40;99.90;;;;;;5012310;28;20552;-73
2024/04/06 02:36:52;;;;;;;2.92;2.25;;;16.40;99.90;;;;;;4996329;28;20188;-73
2024/04/06 02:39:18;;;;;;;2.25;1.90;;;16.40;99.90;;;;;;5009249;28;20178;-74
2024/04/06 02:41:43;;;;;;;3.13;1.92;;;16.40;99.90;;;;;;4998138;28;20205;-72
2024/04/06 02:44:10;;;;;;;4.68;1.90;;;16.40;99.90;;;;;;4994343;28;20192;-74
2024/04/06 02:46:36;;;;;;;4.03;1.50;;;16.40;99.90;;;;;;5014479;28;20212;-73
2024/04/06 02:49:02;;;;;;;2.83;1.63;;;16.40;99.90;;;;;;5005825;28;20193;-73
2024/04/06 02:51:27;;;;;;;3.75;1.70;;;16.40;99.90;;;;;;4987313;28;20243;-73
2024/04/06 02:53:53;;;;;;;1.83;1.40;;;16.40;99.90;;;;;;5010720;28;20239;-73
2024/04/06 02:56:18;;;;;;;3.38;1.60;;;16.30;99.90;;;;;;4992857;28;20582;-72
2024/04/06 02:58:44;;;;;;;4.25;2.05;;;16.30;99.90;;;;;;5007308;28;20272;-73
2024/04/06 03:01:09;;;;;;;3.00;1.60;;;16.30;99.90;;;;;;5012895;28;20212;-74
2024/04/06 03:03:35;;;;;;;2.38;1.65;;;16.30;99.90;;;;;;4990517;28;20256;-74
2024/04/06 03:06:01;;;;;;;3.33;1.50;;;16.30;99.90;;;;;;5001332;28;20789;-73
2024/04/06 03:08:26;;;;;;;2.45;1.42;;;16.30;99.90;;;;;;5014187;28;20192;-73
2024/04/06 03:10:52;;;;;;;5.22;1.73;;;16.30;99.90;;;;;;5011768;28;20926;-74
2024/04/06 03:13:19;;;;;;;2.17;1.67;;;16.30;99.90;;;;;;4995121;28;20185;-73
2024/04/06 03:15:45;;;;;;;4.85;1.70;;;16.30;99.90;;;;;;5010843;28;20185;-74
2024/04/06 03:18:12;;;;;;;2.15;1.63;;;16.20;99.90;;;;;;5001678;28;20189;-73
2024/04/06 03:20:38;;;;;;;2.00;1.50;;;16.20;99.90;;;;;;4977997;28;20646;-72
2024/04/06 03:23:05;;;;;;;3.90;1.38;;;16.20;99.90;;;;;;5017928;28;20181;-73
2024/04/06 03:25:32;;;;;;;3.00;1.60;;;16.20;99.90;;;;;;5011447;28;20201;-74
2024/04/06 03:27:58;;;;;;;4.20;2.25;;;16.10;99.90;;;;;;4992624;28;20189;-73
2024/04/06 03:30:24;;;;;;;1.52;1.42;;;16.00;99.90;;;;;;5010727;28;20193;-74
2024/04/06 03:32:50;;;;;;;2.40;1.63;;;16.00;99.90;;;;;;4985126;28;20189;-73
2024/04/06 03:35:16;;;;;;;4.97;1.90;;;16.00;99.90;;;;;;5002897;28;20190;-74
2024/04/06 03:37:42;;;;;;;1.55;1.45;;;16.00;99.90;;;;;;5001010;28;20185;-73
2024/04/06 03:40:09;;;;;;;2.65;1.65;;;16.00;99.90;;;;;;4992844;28;20206;-73
2024/04/06 03:42:35;;;;;;;2.85;1.83;;;16.00;99.90;;;;;;4992219;28;20289;-73
2024/04/06 03:45:03;;;;;;;3.75;1.60;;;16.00;99.90;;;;;;5008194;28;20667;-73
2024/04/06 03:47:29;;;;;;;8.18;1.67;;;16.00;99.90;;;;;;4994793;28;20261;-73
2024/04/06 03:49:54;;;;;;;4.78;1.73;;;16.00;99.90;;;;;;5001718;28;20201;-73
2024/04/06 03:52:20;;;;;;;5.75;1.90;;;16.00;99.90;;;;;;4994724;28;20272;-73
2024/04/06 03:54:46;;;;;;;2.00;1.48;;;16.00;99.90;;;;;;4994652;28;20204;-73
2024/04/06 03:57:11;;;;;;;1.85;1.52;;;15.90;99.90;;;;;;5010011;28;20189;-72
2024/04/06 03:59:37;;;;;;;2.42;1.48;;;15.90;99.90;;;;;;4976156;28;20722;-73
2024/04/06 04:02:02;;;;;;;3.08;1.77;;;15.90;99.90;;;;;;5009552;28;20248;-72
2024/04/06 04:04:28;;;;;;;1.70;1.45;;;15.90;99.90;;;;;;5003208;28;20209;-72
2024/04/06 04:06:53;;;;;;;2.67;1.42;;;15.90;99.90;;;;;;5007287;28;20280;-73
2024/04/06 04:09:19;;;;;;;2.22;1.40;;;15.90;99.90;;;;;;4997157;28;20186;-73
2024/04/06 04:11:45;;;;;;;2.72;1.30;;;15.90;99.90;;;;;;5008136;28;20267;-73
2024/04/06 04:14:10;;;;;;;1.80;1.30;;;15.90;99.90;;;;;;4978319;28;20273;-73
2024/04/06 04:16:36;;;;;;;1.60;1.45;;;15.90;99.90;;;;;;5009510;28;20186;-73
2024/04/06 04:19:02;;;;;;;2.65;1.65;;;15.90;99.90;;;;;;5016991;28;20220;-73
2024/04/06 04:21:28;;;;;;;2.10;1.58;;;15.90;99.90;;;;;;5007864;28;20228;-72
2024/04/06 04:23:55;;;;;;;4.07;1.55;;;15.90;99.90;;;;;;5001721;28;20452;-73
2024/04/06 04:26:21;;;;;;;1.90;1.30;;;15.90;99.90;;;;;;5017270;28;20204;-73
2024/04/06 04:28:47;;;;;;;5.90;2.05;;;15.90;99.90;;;;;;5000523;28;20209;-72
2024/04/06 04:31:14;;;;;;;5.05;1.83;;;15.90;99.90;;;;;;4995950;28;20201;-72
2024/04/06 04:33:41;;;;;;;2.75;1.40;;;15.90;99.90;;;;;;4978293;28;20232;-73
2024/04/06 04:36:07;;;;;;;5.68;1.35;;;15.90;99.90;;;;;;5011887;28;20564;-73
2024/04/06 04:38:33;;;;;;;3.25;1.77;;;15.80;99.90;;;;;;5003822;28;20249;-73
2024/04/06 04:40:59;;;;;;;3.22;1.60;;;15.80;99.90;;;;;;5010857;28;20213;-72
2024/04/06 04:43:25;;;;;;;1.98;1.45;;;15.80;99.90;;;;;;5015178;28;20614;-73
2024/04/06 04:45:50;;;;;;;1.77;1.40;;;15.80;99.90;;;;;;4991589;28;20220;-73
2024/04/06 04:48:16;;;;;;;6.82;1.60;;;15.70;99.90;;;;;;4994103;28;20197;-73
2024/04/06 04:50:41;;;;;;;2.60;1.88;;;15.70;99.90;;;;;;5000006;28;20204;-73
2024/04/06 04:53:07;;;;;;;4.55;2.13;;;15.70;99.90;;;;;;5012324;28;20189;-73
2024/04/06 04:55:32;;;;;;;4.32;1.92;;;15.60;99.90;;;;;;5014105;28;20196;-73
2024/04/06 04:57:58;;;;;;;5.72;2.00;;;15.60;99.90;;;;;;4986307;28;20264;-73
2024/04/06 05:00:26;;;;;;;4.20;1.83;;;15.60;99.90;;;;;;4997696;28;20221;-73
2024/04/06 05:02:52;;;;;;;3.60;1.90;;;15.60;99.90;;;;;;5003802;28;20264;-74
2024/04/06 05:05:18;;;;;;;5.18;2.28;;;15.60;99.90;;;;;;5007791;28;20225;-73
2024/04/06 05:07:43;;;;;;;4.18;1.83;;;15.60;99.90;;;;;;5013131;28;20216;-73
2024/04/06 05:10:09;;;;;;;1.95;1.58;;;15.60;99.90;;;;;;5014978;28;20188;-73
2024/04/06 05:12:35;;;;;;;2.08;1.55;;;15.70;99.90;;;;;;5010577;28;20252;-73
2024/04/06 05:15:01;;;;;;;2.83;1.75;;;15.70;99.90;;;;;;4996165;28;20265;-72
2024/04/06 05:17:27;;;;;;;4.20;1.90;;;15.70;99.90;;;;;;4994427;28;20190;-73
2024/04/06 05:19:52;;;;;;;2.83;1.60;;;15.80;99.90;;;;;;5007417;28;20187;-74
2024/04/06 05:22:18;;;;;;;2.53;1.75;;;15.80;99.90;;;;;;4992393;28;20478;-74
2024/04/06 05:24:44;;;;;;;4.20;2.17;;;15.80;99.90;;;;;;4983703;28;20210;-74
2024/04/06 05:27:09;;;;;;;3.53;1.90;;;15.90;99.90;;;;;;5005851;28;20186;-74
2024/04/06 05:29:35;;;;;;;3.63;1.90;;;15.90;99.90;;;;;;4998678;28;20182;-73
2024/04/06 05:32:01;;;;;;;4.20;1.85;;;16.00;99.90;;;;;;5015157;28;20268;-73
2024/04/06 05:34:27;;;;;;;6.78;2.65;;;16.10;99.90;;;;;;5015123;28;20240;-73
2024/04/06 05:36:53;;;;;;;3.33;1.83;;;16.40;99.90;;;;;;5006689;28;20188;-73
2024/04/06 05:39:18;;;;;;;3.97;2.05;;;16.70;99.90;;;;;;4996944;28;20679;-72
2024/04/06 05:41:44;;;;;;;3.90;1.90;;;17.00;99.90;;;;;;4985503;28;20214;-73
2024/04/06 05:44:10;;;;;;;4.50;1.80;;;17.40;99.90;;;;;;4997672;28;20181;-72
2024/04/06 05:46:35;;;;;;;3.40;1.63;;;17.90;99.90;;;;;;4998706;28;20299;-74
2024/04/06 05:49:02;;;;;;;2.13;1.50;;;18.30;99.90;;;;;;5021501;28;20603;-73
2024/04/06 05:51:29;;;;;;;3.35;1.67;;;18.80;99.90;;;;;;5004873;28;20212;-74
2024/04/06 05:53:54;;;;;;;2.42;1.30;;;19.30;99.90;;;;;;5001355;28;20190;-74
2024/04/06 05:56:21;;;;;;;5.05;1.55;;;19.90;99.90;;;;;;4998108;28;20196;-74
2024/04/06 05:58:47;;;;;;;2.95;1.55;;;20.80;99.90;;;;;;5008533;28;20201;-74
2024/04/06 06:01:13;;;;;;;2.25;1.30;;;21.70;99.90;;;;;;5002586;28;20217;-74
2024/04/06 06:03:38;;;;;;;2.90;1.42;;;22.60;99.90;;;;;;4998160;28;20186;-73
2024/04/06 06:06:04;;;;;;;3.70;1.48;;;23.30;99.90;;;;;;4994968;28;20726;-72
2024/04/06 06:08:30;;;;;;;2.42;1.30;;;23.80;99.90;;;;;;5008039;28;20181;-73
2024/04/06 06:10:55;;;;;;;2.97;1.75;;;24.40;99.90;;;;;;4996785;28;20208;-72
2024/04/06 06:13:21;;;;;;;5.07;1.58;;;24.70;99.90;;;;;;4998885;28;20784;-73
2024/04/06 06:15:47;;;;;;;2.55;1.58;;;25.10;99.90;;;;;;5000702;28;20188;-74
2024/04/06 06:18:13;;;;;;;4.43;1.83;;;25.70;99.90;;;;;;5005347;28;20538;-74
2024/04/06 06:20:38;;;;;;;3.17;1.83;;;26.10;99.90;;;;;;4992854;28;20197;-74
2024/04/06 06:23:04;;;;;;;2.75;1.80;;;26.60;99.90;;;;;;5001816;28;20182;-75
2024/04/06 06:25:31;;;;;;;3.72;1.85;;;27.00;99.90;;;;;;4981285;28;20213;-74
2024/04/06 06:27:57;;;;;;;4.15;2.28;;;27.50;99.90;;;;;;4995246;28;20181;-75
2024/04/06 06:30:23;;;;;;;4.20;2.08;;;27.40;99.90;;;;;;5012885;28;20552;-75
2024/04/06 06:32:49;;;;;;;4.70;2.22;;;27.50;99.90;;;;;;5010604;28;20177;-73
2024/04/06 06:35:14;;;;;;;5.18;2.17;;;27.40;99.90;;;;;;5003723;28;20193;-76
2024/04/06 06:37:40;;;;;;;5.18;2.03;;;27.60;99.90;;;;;;4983938;28;20185;-73
2024/04/06 06:40:06;;;;;;;7.75;2.80;;;27.20;99.90;;;;;;5003415;28;20195;-73
2024/04/06 06:42:31;;;;;;;3.55;2.28;;;27.20;99.90;;;;;;5006901;28;20656;-73
2024/04/06 06:44:57;;;;;;;5.78;2.83;;;27.60;99.90;;;;;;4999465;28;20213;-73
2024/04/06 06:47:24;;;;;;;6.65;3.10;;;27.40;99.90;;;;;;5001336;28;20205;-73
2024/04/06 06:49:53;;;;;;;4.47;2.42;;;26.70;99.90;;;;;;4994940;28;20189;-74
2024/04/06 06:52:18;;;;;;;6.05;2.75;;;26.20;99.90;;;;;;5049106;22;20261;-72
2024/04/06 06:54:44;;;;;;;6.78;2.30;;;25.60;99.90;;;;;;5022001;28;20313;-73
2024/04/06 06:57:09;;;;;;;2.55;2.13;;;25.10;99.90;;;;;;5036550;28;20573;-72
2024/04/06 06:59:35;;;;;;;3.60;1.95;;;24.80;99.90;;;;;;5039305;28;20202;-73
2024/04/06 07:02:01;;;;;;;2.90;2.00;;;24.50;99.90;;;;;;5033080;28;20266;-73
2024/04/06 07:04:27;;;;;;;3.05;2.00;;;24.20;99.90;;;;;;5029721;28;20663;-72
2024/04/06 07:06:52;;;;;;;5.30;2.00;;;24.00;99.90;;;;;;5030243;28;20189;-73
2024/04/06 07:09:18;;;;;;;4.28;2.10;;;24.00;99.90;;;;;;5048828;28;20176;-72
2024/04/06 07:11:44;;;;;;;2.83;2.20;;;23.60;99.90;;;;;;5049292;28;20206;-74
2024/04/06 07:14:12;;;;;;;2.83;2.28;;;23.30;99.90;;;;;;5050455;28;20679;-74
2024/04/06 07:16:38;;;;;;;3.85;2.17;;;23.20;99.90;;;;;;5037024;28;20199;-71
2024/04/06 07:19:05;;;;;;;3.88;1.80;;;23.20;99.90;;;;;;5050123;28;20689;-72
2024/04/06 07:21:30;;;;;;;4.13;2.08;;;23.30;99.90;;;;;;5031229;28;20204;-72
2024/04/06 07:23:56;;;;;;;4.40;2.22;;;23.20;99.90;;;;;;5029658;28;20191;-74
2024/04/06 07:26:23;;;;;;;3.45;2.00;;;23.20;99.90;;;;;;5033189;28;20292;-72
2024/04/06 07:28:49;;;;;;;4.93;2.00;;;23.30;99.90;;;;;;5037930;28;20195;-72
2024/04/06 07:31:14;;;;;;;3.22;1.63;;;23.40;99.90;;;;;;5039914;28;20580;-75
2024/04/06 07:33:40;;;;;;;3.40;1.60;;;23.30;99.90;;;;;;5031021;28;20181;-72
2024/04/06 07:36:06;;;;;;;4.78;1.75;;;23.00;99.90;;;;;;5030585;28;20184;-72
2024/04/06 07:38:31;;;;;;;2.35;1.13;;;22.90;99.90;;;;;;5034935;28;20184;-72
2024/04/06 07:41:02;;;;;;;3.70;1.80;;;23.00;99.90;;;;;;5038102;28;20655;-74
2024/04/06 07:43:28;;;;;;;3.45;1.38;;;23.10;99.90;;;;;;5034113;28;20650;-73
2024/04/06 07:45:54;;;;;;;4.57;1.52;;;22.90;99.90;;;;;;5049617;28;20221;-71
2024/04/06 07:48:20;;;;;;;3.65;1.73;;;22.80;99.90;;;;;;5048309;28;20180;-71
2024/04/06 07:50:46;;;;;;;2.17;1.40;;;22.90;99.90;;;;;;5038117;28;20650;-73
2024/04/06 07:53:12;;;;;;;3.53;1.90;;;23.00;99.90;;;;;;5037440;28;20204;-73
2024/04/06 07:55:38;;;;;;;4.13;1.67;;;23.20;99.90;;;;;;5054696;28;20322;-74
2024/04/06 07:58:04;;;;;;;3.53;1.90;;;23.10;99.90;;;;;;5043359;28;20279;-72
2024/04/06 08:00:30;;;;;;;2.40;1.27;;;23.10;99.90;;;;;;5060683;28;20697;-73
2024/04/06 08:02:56;;;;;;;4.80;2.35;;;23.10;99.90;;;;;;5054959;28;20203;-72
2024/04/06 08:05:22;;;;;;;1.92;1.40;;;23.10;99.90;;;;;;5055432;28;20723;-72
2024/04/06 08:07:47;;;;;;;2.35;1.30;;;23.20;99.90;;;;;;5036897;28;20188;-72
2024/04/06 08:10:18;;;;;;;2.40;1.00;;;23.20;99.90;;;;;;5034666;28;20645;-72
2024/04/06 08:12:45;;;;;;;176.05;12.27;;;23.20;99.90;;;;;;5049911;28;20247;-69
2024/04/06 08:15:11;;;;;;;31.45;3.72;;;23.30;99.90;;;;;;5035375;28;20184;-72
2024/04/06 08:17:40;;;;;;;78.43;5.95;;;23.30;99.90;;;;;;5053345;28;20188;-73
2024/04/06 08:20:07;;;;;;;157.55;13.13;;;23.40;99.90;;;;;;5036539;28;20192;-72
2024/04/06 08:22:33;;;;;;;9.05;2.22;;;23.50;99.90;;;;;;5036836;28;20223;-73
2024/04/06 08:24:58;;;;;;;10.05;1.77;;;23.50;99.90;;;;;;5045439;28;20694;-72
2024/04/06 08:27:24;;;;;;;12.98;2.00;;;23.60;99.90;;;;;;5044473;28;20180;-72
2024/04/06 08:29:50;;;;;;;6.45;1.38;;;23.80;99.90;;;;;;5034967;28;20189;-73
2024/04/06 08:32:17;;;;;;;42.63;4.82;;;23.90;99.90;;;;;;5042851;28;20224;-72
2024/04/06 08:34:43;;;;;;;2.40;1.45;;;23.90;99.90;;;;;;5043999;28;20551;-73
2024/04/06 08:37:09;;;;;;;4.82;1.65;;;23.80;99.90;;;;;;5038036;28;20188;-72
2024/04/06 08:39:35;;;;;;;9.02;1.75;;;23.80;99.90;;;;;;5047491;28;20185;-71
2024/04/06 08:42:02;;;;;;;21.27;3.60;;;23.90;99.90;;;;;;5037884;28;20216;-71
2024/04/06 08:44:53;;;;;;;7.15;2.13;;;23.80;99.90;;;;;;5041089;28;20187;-71
2024/04/06 08:47:20;;;;;;;2.60;1.20;;;24.00;99.90;;;;;;5020665;28;20204;-71
2024/04/06 08:49:47;;;;;;;2.22;1.20;;;24.00;99.90;;;;;;5032877;28;20185;-72
2024/04/06 08:52:13;;;;;;;1.27;0.90;;;24.00;99.90;;;;;;5042536;28;20702;-72
2024/04/06 08:54:40;;;;;;;5.03;1.45;;;24.00;99.90;;;;;;5039720;28;20297;-70
2024/04/06 08:57:05;;;;;;;2.08;1.10;;;24.00;99.90;;;;;;5043941;28;20180;-71
2024/04/06 08:59:33;;;;;;;3.78;1.30;;;24.00;99.90;;;;;;5039596;28;20206;-70
2024/04/06 09:02:00;;;;;;;6.10;1.35;;;24.10;99.90;;;;;;5048027;28;20226;-71
2024/04/06 09:04:25;;;;;;;2.17;1.20;;;24.10;99.90;;;;;;5027996;28;20187;-71
2024/04/06 09:06:51;;;;;;;7.90;1.33;;;23.80;99.90;;;;;;5034114;28;20204;-74
2024/04/06 09:09:16;;;;;;;5.82;1.35;;;23.70;99.90;;;;;;5055310;28;20192;-72
2024/04/06 09:11:43;;;;;;;1.17;0.98;;;23.80;99.90;;;;;;5049318;28;20212;-72
2024/04/06 09:14:10;;;;;;;3.95;0.95;;;24.20;99.90;;;;;;5040655;28;20183;-73
2024/04/06 09:16:36;;;;;;;2.85;0.80;;;24.40;99.90;;;;;;5058387;28;20225;-73
2024/04/06 09:19:03;;;;;;;3.60;0.90;;;24.50;99.90;;;;;;5047224;28;20184;-72
2024/04/06 09:21:30;;;;;;;5.88;1.00;;;24.60;99.90;;;;;;5046948;28;20594;-67
2024/04/06 09:23:56;;;;;;;1.88;0.80;;;24.40;99.90;;;;;;5047866;28;20850;-70
2024/04/06 09:26:22;;;;;;;2.53;1.05;;;24.40;99.90;;;;;;5050461;28;20211;-73
2024/04/06 09:28:52;;;;;;;1.77;1.00;;;24.50;99.90;;;;;;5034356;28;20263;-73
2024/04/06 09:31:20;;;;;;;2.90;1.38;;;24.80;99.90;;;;;;5043828;28;20349;-70
2024/04/06 09:33:53;;;;;;;1.65;0.82;;;25.00;99.90;;;;;;5034198;28;20184;-71
2024/04/06 09:36:22;;;;;;;7.25;1.05;;;25.10;99.90;;;;;;5032420;28;20271;-70
2024/04/06 09:38:48;;;;;;;2.47;0.95;;;25.20;99.90;;;;;;5025770;28;20196;-70
2024/04/06 09:41:18;;;;;;;1.15;0.85;;;25.40;99.90;;;;;;5033741;28;20261;-71
2024/04/06 09:43:53;;;;;;;1.70;0.95;;;25.60;99.90;;;;;;5037795;28;20724;-71
2024/04/06 09:46:19;;;;;;;1.08;0.77;;;25.40;99.00;;;;;;5039143;28;20244;-72
2024/04/06 09:48:46;;;;;;;1.75;0.80;;;25.10;98.50;;;;;;5032061;28;20188;-72
2024/04/06 09:51:12;;;;;;;0.95;0.73;;;25.00;99.00;;;;;;5040250;28;20216;-72
2024/04/06 09:53:39;;;;;;;3.35;0.80;;;24.80;99.40;;;;;;5042768;28;20204;-73
2024/04/06 09:56:07;;;;;;;1.98;0.85;;;24.80;99.90;;;;;;5045700;28;20184;-74
2024/04/06 09:58:33;;;;;;;1.50;0.80;;;24.80;99.90;;;;;;5052513;28;20189;-72
2024/04/06 10:01:11;;;;;;;1.42;1.00;;;24.90;99.90;;;;;;5035745;28;20532;-71
2024/04/06 10:03:45;;;;;;;2.72;1.00;;;24.70;99.90;;;;;;5049892;28;20382;-72
2024/04/06 10:06:12;;;;;;;0.98;0.80;;;24.40;99.90;;;;;;5034733;28;20204;-73
2024/04/06 10:08:56;;;;;;;1.23;0.70;;;24.20;99.10;;;;;;5035789;28;20659;-72
2024/04/06 10:11:24;;;;;;;1.88;1.00;;;24.20;99.50;;;;;;5045236;28;20223;-75
2024/04/06 10:14:02;;;;;;;3.15;0.98;;;24.40;99.90;;;;;;5028961;28;20181;-72
2024/04/06 10:16:33;;;;;;;0.90;0.70;;;24.80;99.90;;;;;;5050456;28;20618;-72
2024/04/06 10:19:00;;;;;;;1.85;0.82;;;25.10;98.90;;;;;;5048922;28;20180;-72
2024/04/06 10:21:33;;;;;;;0.80;0.70;;;25.10;98.80;;;;;;5049942;28;20214;-71
2024/04/06 10:24:02;;;;;;;1.50;0.93;;;25.30;98.60;;;;;;5048987;28;20192;-72
2024/04/06 10:26:28;;;;;;;2.85;1.65;;;25.40;98.30;;;;;;5041190;28;20246;-72
2024/04/06 10:28:54;;;;;;;1.83;0.93;;;25.50;97.60;;;;;;5052715;28;20216;-71
2024/04/06 10:31:19;;;;;;;2.65;1.02;;;25.40;96.40;;;;;;5065512;28;20222;-72
2024/04/06 10:33:45;;;;;;;2.40;0.90;;;25.70;97.30;;;;;;5044110;28;20274;-75
2024/04/06 10:36:11;;;;;;;0.93;0.63;;;25.80;96.60;;;;;;5045652;28;20627;-71
2024/04/06 10:38:39;;;;;;;1.52;1.00;;;25.80;96.00;;;;;;5041374;28;20298;-72
2024/04/06 10:41:05;;;;;;;3.03;1.05;;;26.00;96.40;;;;;;5033110;28;20289;-71
2024/04/06 10:43:32;;;;;;;2.47;1.25;;;26.10;94.50;;;;;;5037494;28;20180;-69
2024/04/06 10:45:58;;;;;;;2.53;1.05;;;26.20;94.00;;;;;;5048303;28;20204;-71
2024/04/06 10:48:25;;;;;;;2.05;1.00;;;26.10;91.80;;;;;;5035128;28;20271;-71
2024/04/06 10:50:51;;;;;;;3.20;1.20;;;25.90;93.40;;;;;;5038770;28;20543;-73
2024/04/06 10:53:18;;;;;;;3.05;1.30;;;26.00;95.10;;;;;;5036926;28;20177;-72
2024/04/06 10:55:45;;;;;;;3.25;0.90;;;26.20;93.30;;;;;;5034083;28;20583;-75
2024/04/06 10:58:11;;;;;;;2.35;1.20;;;26.20;92.50;;;;;;5037995;28;20183;-72
2024/04/06 11:00:39;;;;;;;3.78;1.13;;;26.30;92.40;;;;;;5043535;28;20277;-72
2024/04/06 11:03:09;;;;;;;2.35;0.70;;;26.40;92.50;;;;;;5032347;28;20302;-72
2024/04/06 11:05:36;;;;;;;2.58;0.80;;;26.50;92.10;;;;;;5056417;28;20214;-73
2024/04/06 11:08:06;;;;;;;1.77;0.80;;;26.60;91.00;;;;;;5052624;28;20274;-72
2024/04/06 11:10:32;;;;;;;1.05;0.70;;;26.60;93.00;;;;;;5035899;28;20180;-71
2024/04/06 11:12:58;;;;;;;1.63;0.70;;;26.50;90.90;;;;;;5033493;28;20200;-71
2024/04/06 11:15:26;;;;;;;0.93;0.73;;;26.40;90.00;;;;;;5043306;28;20545;-71
2024/04/06 11:17:53;;;;;;;1.08;0.90;;;26.40;90.30;;;;;;5038262;28;20312;-73
2024/04/06 11:20:19;;;;;;;1.23;0.80;;;26.50;89.40;;;;;;5030992;28;20279;-73
2024/04/06 11:22:45;;;;;;;1.50;0.55;;;26.50;85.80;;;;;;5030445;28;20519;-70
2024/04/06 11:25:18;;;;;;;1.15;0.52;;;26.50;85.40;;;;;;5028911;28;20208;-72
2024/04/06 11:27:51;;;;;;;1.85;0.57;;;26.50;85.60;;;;;;5028652;28;20271;-72
2024/04/06 11:30:17;;;;;;;0.73;0.73;;;26.50;86.30;;;;;;5030647;28;20185;-74
2024/04/06 11:32:50;;;;;;;0.75;0.70;;;26.60;88.10;;;;;;5046999;28;20270;-74
2024/04/06 11:35:17;;;;;;;1.73;0.80;;;26.70;86.60;;;;;;5037028;28;20237;-74
2024/04/06 11:37:44;;;;;;;2.67;0.80;;;26.70;87.00;;;;;;5037976;28;20188;-73
2024/04/06 11:40:10;;;;;;;2.17;0.73;;;26.70;87.30;;;;;;5052262;28;20262;-74
2024/04/06 11:42:35;;;;;;;1.83;0.70;;;26.60;87.10;;;;;;5051566;28;20401;-73
2024/04/06 11:45:01;;;;;;;3.22;0.93;;;26.60;88.70;;;;;;5050749;28;20199;-72
2024/04/06 11:47:27;;;;;;;1.10;0.60;;;26.60;86.60;;;;;;5035863;28;20180;-71
2024/04/06 11:49:53;;;;;;;1.23;0.80;;;26.60;82.90;;;;;;5035193;28;20259;-72
2024/04/06 11:52:18;;;;;;;1.10;0.90;;;26.70;83.30;;;;;;5051425;28;20218;-74
2024/04/06 11:54:44;;;;;;;0.93;0.60;;;26.80;84.90;;;;;;5036104;28;20334;-71
2024/04/06 11:57:10;;;;;;;1.30;0.85;;;26.80;82.00;;;;;;5038002;28;20177;-72
2024/04/06 11:59:36;;;;;;;2.80;0.80;;;26.70;81.60;;;;;;5035084;28;20241;-71
2024/04/06 12:02:02;;;;;;;1.77;0.90;;;26.80;81.40;;;;;;5040610;28;20228;-73
2024/04/06 12:04:27;;;;;;;1.38;0.57;;;26.90;81.50;;;;;;5037994;28;20677;-72
2024/04/06 12:06:53;;;;;;;1.05;0.60;;;27.00;79.50;;;;;;5037943;28;20204;-73
2024/04/06 12:09:20;;;;;;;1.23;0.70;;;27.00;81.30;;;;;;5035097;28;20184;-74
2024/04/06 12:11:45;;;;;;;1.00;0.68;;;26.90;78.40;;;;;;5032083;28;20206;-76
2024/04/06 12:14:11;;;;;;;0.65;0.65;;;26.90;79.00;;;;;;5031340;28;20256;-73
2024/04/06 12:16:36;;;;;;;1.98;0.77;;;26.90;78.30;;;;;;5030522;28;20188;-73
2024/04/06 12:19:02;;;;;;;1.42;0.50;;;27.00;78.00;;;;;;5041300;28;20184;-73
2024/04/06 12:21:29;;;;;;;1.80;0.65;;;27.20;78.60;;;;;;5031119;28;20204;-74
2024/04/06 12:23:54;;;;;;;0.85;0.60;;;27.30;76.80;;;;;;5031368;28;20195;-74
2024/04/06 12:26:20;;;;;;;1.73;0.90;;;27.20;77.90;;;;;;5050790;28;20200;-74
2024/04/06 12:28:46;;;;;;;0.50;0.47;;;27.20;76.60;;;;;;5054919;28;20267;-73
2024/04/06 12:31:11;;;;;;;0.80;0.80;;;27.30;76.70;;;;;;5054481;28;20199;-72
2024/04/06 12:33:37;;;;;;;0.50;0.50;;;27.30;77.30;;;;;;5036702;28;20242;-73
2024/04/06 12:36:06;;;;;;;1.65;0.63;;;27.40;77.00;;;;;;5047725;28;20180;-73
2024/04/06 12:38:32;;;;;;;1.00;0.60;;;27.20;79.10;;;;;;5034235;28;20185;-71
2024/04/06 12:40:59;;;;;;;2.78;0.82;;;27.10;77.60;;;;;;5034474;28;20248;-73